createdAt,value
2022-08-03T00:02:24.727Z,1.00
2022-08-03T00:04:54.945Z,1.00
2022-08-03T00:07:25.145Z,1.00
2022-08-03T00:09:55.406Z,1.00
2022-08-03T00:12:25.651Z,1.00
2022-08-03T00:14:58.401Z,1.00
2022-08-03T00:17:28.639Z,1.00
2022-08-03T00:19:59.600Z,1.00
2022-08-03T00:22:29.847Z,1.00
2022-08-03T00:25:00.021Z,1.00
2022-08-03T00:27:30.283Z,1.00
2022-08-03T00:30:06.935Z,1.00
2022-08-03T00:32:37.301Z,1.00
2022-08-03T00:35:31.135Z,1.00
2022-08-03T00:38:03.294Z,1.00
2022-08-03T00:40:33.707Z,1.00
2022-08-03T00:43:07.627Z,1.00
2022-08-03T00:45:43.912Z,1.00
2022-08-03T00:48:29.600Z,1.00
2022-08-03T00:51:04.502Z,1.00
2022-08-03T00:53:35.573Z,1.00
2022-08-03T00:56:06.901Z,1.00
2022-08-03T00:58:37.275Z,1.00
2022-08-03T01:01:10.123Z,1.00
2022-08-03T01:03:40.488Z,1.00
2022-08-03T01:06:20.363Z,1.00
2022-08-03T01:09:06.121Z,1.00
2022-08-03T01:12:01.026Z,1.00
2022-08-03T01:14:44.501Z,1.00
2022-08-03T01:17:27.519Z,4.90
2022-08-03T01:20:05.137Z,9.00
2022-08-03T01:23:03.511Z,15.40
2022-08-03T01:25:56.263Z,16.00
2022-08-03T01:28:50.803Z,25.30
2022-08-03T01:31:30.727Z,30.00
2022-08-03T01:34:08.539Z,33.10
2022-08-03T01:36:53.540Z,29.10
2022-08-03T01:39:26.456Z,28.70
2022-08-03T01:42:06.281Z,28.40
2022-08-03T01:44:43.211Z,28.30
2022-08-03T01:47:17.070Z,31.80
2022-08-03T01:49:49.307Z,34.80
2022-08-03T01:52:23.902Z,31.80
2022-08-03T01:54:57.191Z,18.00
2022-08-03T01:57:30.750Z,18.60
2022-08-03T02:00:04.284Z,24.90
2022-08-03T02:02:39.373Z,24.30
2022-08-03T02:05:14.343Z,26.80
2022-08-03T02:07:48.131Z,40.20
2022-08-03T02:10:35.403Z,31.00
2022-08-03T02:13:10.431Z,20.40
2022-08-03T02:15:42.662Z,16.50
2022-08-03T02:18:17.341Z,20.90
2022-08-03T02:20:49.274Z,37.10
2022-08-03T02:23:20.294Z,32.40
2022-08-03T02:25:56.918Z,19.80
2022-08-03T02:28:37.424Z,21.90
2022-08-03T02:31:15.708Z,38.90
2022-08-03T02:33:55.121Z,55.50
2022-08-03T02:36:31.572Z,30.30
2022-08-03T02:39:05.455Z,32.60
2022-08-03T02:41:40.951Z,27.80
2022-08-03T02:44:13.897Z,29.30
2022-08-03T02:46:49.455Z,37.00
2022-08-03T02:49:35.394Z,49.10
2022-08-03T02:52:17.132Z,42.40
2022-08-03T02:54:50.481Z,48.10
2022-08-03T02:57:22.737Z,55.30
2022-08-03T02:59:55.584Z,57.40
2022-08-03T03:02:27.031Z,53.50
2022-08-03T03:05:54.490Z,51.80
2022-08-03T03:07:53.163Z,47.90
2022-08-03T03:10:27.434Z,65.00
2022-08-03T03:13:00.903Z,78.30
2022-08-03T03:15:35.947Z,95.50
2022-08-03T03:18:10.056Z,96.20
2022-08-03T03:20:44.848Z,93.90
2022-08-03T03:23:16.027Z,99.90
2022-08-03T03:25:48.030Z,99.90
2022-08-03T03:28:18.511Z,99.90
2022-08-03T03:30:53.170Z,99.90
2022-08-03T03:33:24.599Z,99.90
2022-08-03T03:35:57.846Z,99.90
2022-08-03T03:38:28.149Z,99.90
2022-08-03T03:40:59.166Z,99.60
2022-08-03T03:43:29.647Z,99.90
2022-08-03T03:46:02.170Z,99.90
2022-08-03T03:48:32.539Z,99.90
2022-08-03T03:51:07.002Z,99.90
2022-08-03T03:53:37.136Z,99.90
2022-08-03T03:56:07.813Z,99.90
2022-08-03T03:58:37.933Z,99.90
2022-08-03T04:01:08.982Z,99.90
2022-08-03T04:03:39.337Z,99.90
2022-08-03T04:06:24.893Z,99.90
2022-08-03T04:09:16.146Z,99.90
2022-08-03T04:11:54.147Z,99.90
2022-08-03T04:14:29.519Z,99.90
2022-08-03T04:17:04.556Z,99.90
2022-08-03T04:19:43.112Z,99.90
2022-08-03T04:22:22.488Z,99.90
2022-08-03T04:25:00.106Z,99.90
2022-08-03T04:27:37.687Z,99.90
2022-08-03T04:30:11.684Z,99.90
2022-08-03T04:32:45.919Z,99.90
2022-08-03T04:35:16.455Z,99.90
2022-08-03T04:37:54.314Z,99.90
2022-08-03T04:40:33.144Z,99.90
2022-08-03T04:43:06.233Z,99.90
2022-08-03T04:45:38.515Z,99.90
2022-08-03T04:48:10.139Z,98.80
2022-08-03T04:50:40.695Z,84.60
2022-08-03T04:53:13.869Z,53.70
2022-08-03T04:55:44.425Z,49.70
2022-08-03T04:58:15.406Z,42.80
2022-08-03T05:00:45.849Z,27.40
2022-08-03T05:03:20.032Z,14.60
2022-08-03T05:06:06.591Z,11.60
2022-08-03T05:08:46.776Z,1.00
2022-08-03T05:11:19.453Z,1.00
2022-08-03T05:13:49.943Z,1.00
2022-08-03T05:16:20.235Z,1.00
2022-08-03T05:18:50.546Z,1.00
2022-08-03T05:21:20.827Z,1.00
2022-08-03T05:23:53.731Z,1.00
2022-08-03T05:26:23.908Z,6.40
2022-08-03T05:28:54.187Z,1.00
2022-08-03T05:31:24.423Z,1.00
2022-08-03T05:33:55.124Z,1.00
2022-08-03T05:36:25.360Z,1.00
2022-08-03T05:39:02.513Z,1.00
2022-08-03T05:41:37.121Z,1.00
2022-08-03T05:44:08.714Z,1.00
2022-08-03T05:46:39.224Z,1.00
2022-08-03T05:49:09.448Z,1.00
2022-08-03T05:51:39.970Z,1.00
2022-08-03T05:54:12.918Z,1.00
2022-08-03T05:56:43.831Z,99.90
2022-08-03T05:59:36.921Z,99.90
2022-08-03T06:02:04.599Z,1.00
2022-08-03T06:04:34.795Z,99.90
2022-08-03T06:07:05.067Z,99.90
2022-08-03T06:10:34.531Z,99.90
2022-08-03T06:12:28.053Z,99.90
2022-08-03T06:14:58.428Z,99.90
2022-08-03T06:17:28.701Z,99.90
2022-08-03T06:20:09.468Z,99.90
2022-08-03T06:22:49.097Z,99.90
2022-08-03T06:25:26.008Z,99.90
2022-08-03T06:27:56.240Z,99.90
2022-08-03T06:30:26.623Z,99.90
2022-08-03T06:32:56.950Z,99.90
2022-08-03T06:35:28.085Z,99.90
2022-08-03T06:37:58.244Z,99.90
2022-08-03T06:40:32.263Z,99.90
2022-08-03T06:43:07.550Z,99.90
2022-08-03T06:45:41.051Z,99.90
2022-08-03T06:48:13.214Z,99.90
2022-08-03T06:50:45.383Z,99.90
2022-08-03T06:53:19.762Z,99.90
2022-08-03T06:55:55.328Z,99.90
2022-08-03T06:58:25.879Z,99.90
2022-08-03T07:00:56.744Z,99.90
2022-08-03T07:03:27.167Z,99.90
2022-08-03T07:05:57.453Z,99.90
2022-08-03T07:08:34.257Z,99.90
2022-08-03T07:11:08.006Z,99.90
2022-08-03T07:13:38.280Z,99.90
2022-08-03T07:16:09.139Z,99.90
2022-08-03T07:18:42.001Z,99.90
2022-08-03T07:21:12.945Z,99.90
2022-08-03T07:23:43.266Z,99.90
2022-08-03T07:26:16.155Z,99.90
2022-08-03T07:28:46.464Z,99.90
2022-08-03T07:31:16.636Z,99.90
2022-08-03T07:33:46.917Z,99.90
2022-08-03T07:36:17.075Z,99.90
2022-08-03T07:38:47.338Z,99.90
2022-08-03T07:41:20.203Z,99.90
2022-08-03T07:43:50.399Z,99.90
2022-08-03T07:46:20.582Z,99.90
2022-08-03T07:48:50.851Z,99.90
2022-08-03T07:51:21.235Z,99.90
2022-08-03T07:53:51.431Z,99.90
2022-08-03T07:56:25.942Z,99.90
2022-08-03T07:58:56.563Z,99.90
2022-08-03T08:01:27.270Z,99.90
2022-08-03T08:03:57.707Z,99.90
2022-08-03T08:06:27.824Z,1.00
2022-08-03T08:09:02.419Z,1.00
2022-08-03T08:11:39.746Z,1.00
2022-08-03T08:14:10.342Z,1.00
2022-08-03T08:16:40.477Z,1.00
2022-08-03T08:19:10.796Z,1.00
2022-08-03T08:21:53.031Z,1.00
2022-08-03T08:24:34.055Z,1.00
2022-08-03T08:27:08.815Z,1.00
2022-08-03T08:29:47.677Z,1.00
2022-08-03T08:32:24.423Z,1.00
2022-08-03T08:34:54.677Z,1.00
2022-08-03T08:37:24.809Z,1.00
2022-08-03T08:39:55.168Z,1.00
2022-08-03T08:42:28.401Z,1.00
2022-08-03T08:44:58.951Z,1.00
2022-08-03T08:47:51.191Z,1.00
2022-08-03T08:50:27.991Z,1.00
2022-08-03T08:53:01.647Z,1.00
2022-08-03T08:55:59.445Z,1.00
2022-08-03T08:58:26.521Z,1.00
2022-08-03T09:00:57.176Z,1.00
2022-08-03T09:03:30.375Z,1.00
2022-08-03T09:06:03.595Z,1.00
2022-08-03T09:08:35.843Z,1.00
2022-08-03T09:11:07.662Z,1.00
2022-08-03T09:13:41.936Z,1.00
2022-08-03T09:16:18.060Z,1.00
2022-08-03T09:18:50.860Z,1.00
2022-08-03T09:21:33.935Z,1.00
2022-08-03T09:24:13.143Z,1.00
2022-08-03T09:26:54.837Z,1.00
2022-08-03T09:29:28.411Z,1.00
2022-08-03T09:32:05.748Z,1.00
2022-08-03T09:34:36.260Z,1.00
2022-08-03T09:37:18.322Z,1.00
2022-08-03T09:39:49.204Z,1.00
2022-08-03T09:42:23.785Z,1.00
2022-08-03T09:44:58.103Z,1.00
2022-08-03T09:47:33.263Z,1.00
2022-08-03T09:50:07.743Z,1.00
2022-08-03T09:52:49.833Z,1.00
2022-08-03T09:56:33.251Z,1.00
2022-08-03T09:58:15.258Z,1.00
2022-08-03T10:01:23.943Z,1.00
2022-08-03T10:04:03.900Z,1.00
2022-08-03T10:06:35.623Z,1.00
2022-08-03T10:09:11.884Z,1.00
2022-08-03T10:11:44.393Z,1.00
2022-08-03T10:14:19.328Z,1.00
2022-08-03T10:16:52.947Z,1.00
2022-08-03T10:19:23.184Z,1.00
2022-08-03T10:22:00.690Z,1.00
2022-08-03T10:24:36.763Z,1.00
2022-08-03T10:27:09.948Z,1.00
2022-08-03T10:29:48.775Z,1.00
2022-08-03T10:32:31.674Z,1.00
2022-08-03T10:35:20.991Z,1.00
2022-08-03T10:37:59.386Z,1.00
2022-08-03T10:40:51.847Z,1.00
2022-08-03T10:43:31.014Z,1.00
2022-08-03T10:46:03.700Z,1.00
2022-08-03T10:48:38.660Z,1.00
2022-08-03T10:51:09.194Z,1.00
2022-08-03T10:53:44.160Z,1.00
2022-08-03T10:56:56.679Z,1.00
2022-08-03T11:00:06.707Z,1.00
2022-08-03T11:03:18.697Z,1.00
2022-08-03T11:05:54.499Z,1.00
2022-08-03T11:08:34.949Z,1.00
2022-08-03T11:11:31.319Z,1.00
2022-08-03T11:14:05.601Z,1.00
2022-08-03T11:16:38.579Z,1.00
2022-08-03T11:19:11.856Z,1.00
2022-08-03T11:22:01.852Z,1.00
2022-08-03T11:25:04.733Z,1.00
2022-08-03T11:27:37.659Z,1.00
2022-08-03T11:30:13.878Z,1.00
2022-08-03T11:33:11.083Z,1.00
2022-08-03T11:36:05.053Z,1.00
2022-08-03T11:38:35.305Z,1.00
2022-08-03T11:41:05.599Z,1.00
2022-08-03T11:43:48.711Z,1.00
2022-08-03T11:46:28.424Z,1.00
2022-08-03T11:49:11.228Z,1.00
2022-08-03T11:51:44.311Z,1.00
2022-08-03T11:54:14.670Z,1.00
2022-08-03T11:56:50.633Z,1.00
2022-08-03T11:59:22.436Z,1.00
2022-08-03T12:01:53.227Z,1.00
2022-08-03T12:04:23.340Z,1.00
2022-08-03T12:07:05.367Z,1.00
2022-08-03T12:09:38.117Z,1.00
2022-08-03T12:12:09.474Z,1.00
2022-08-03T12:14:50.424Z,1.00
2022-08-03T12:17:22.606Z,1.00
2022-08-03T12:19:53.131Z,1.00
2022-08-03T12:22:38.088Z,1.00
2022-08-03T12:25:10.485Z,1.00
2022-08-03T12:27:43.459Z,1.00
2022-08-03T12:30:15.367Z,1.00
2022-08-03T12:32:48.000Z,1.00
2022-08-03T12:35:27.309Z,1.00
2022-08-03T12:38:00.959Z,1.00
2022-08-03T12:40:32.053Z,1.00
2022-08-03T12:43:03.850Z,1.00
2022-08-03T12:45:35.967Z,1.00
2022-08-03T12:48:11.347Z,1.00
2022-08-03T12:50:43.209Z,1.00
2022-08-03T12:53:31.594Z,1.00
2022-08-03T12:56:06.393Z,1.00
2022-08-03T12:58:39.263Z,1.00
2022-08-03T13:01:10.853Z,1.00
2022-08-03T13:03:50.379Z,1.00
2022-08-03T13:06:25.990Z,1.00
2022-08-03T13:09:10.506Z,1.00
2022-08-03T13:11:53.435Z,1.00
2022-08-03T13:14:29.969Z,1.00
2022-08-03T13:17:00.874Z,1.00
2022-08-03T13:19:31.619Z,1.00
2022-08-03T13:22:04.730Z,1.00
2022-08-03T13:24:38.551Z,1.00
2022-08-03T13:28:02.538Z,1.00
2022-08-03T13:30:00.551Z,1.00
2022-08-03T13:32:30.853Z,1.00
2022-08-03T13:35:02.626Z,1.00
2022-08-03T13:37:34.801Z,1.00
2022-08-03T13:40:11.613Z,1.00
2022-08-03T13:42:42.030Z,1.00
2022-08-03T13:45:12.795Z,1.00
2022-08-03T13:47:42.958Z,1.00
2022-08-03T13:50:13.339Z,1.00
2022-08-03T13:52:46.242Z,1.00
2022-08-03T13:55:19.098Z,1.00
2022-08-03T13:58:12.111Z,1.00
2022-08-03T14:00:39.899Z,1.00
2022-08-03T14:03:14.075Z,1.00
2022-08-03T14:05:47.632Z,1.00
2022-08-03T14:08:18.407Z,1.00
2022-08-03T14:10:51.216Z,1.00
2022-08-03T14:13:22.527Z,1.00
2022-08-03T14:15:52.703Z,1.00
2022-08-03T14:18:29.274Z,1.00
2022-08-03T14:21:06.945Z,1.00
2022-08-03T14:23:39.341Z,1.00
2022-08-03T14:26:14.530Z,1.00
2022-08-03T14:28:44.717Z,1.00
2022-08-03T14:32:09.235Z,1.00
2022-08-03T14:34:05.526Z,1.00
2022-08-03T14:36:35.820Z,1.00
2022-08-03T14:39:06.662Z,1.00
2022-08-03T14:41:39.591Z,1.00
2022-08-03T14:44:09.739Z,1.00
2022-08-03T14:46:39.976Z,1.00
2022-08-03T14:50:31.146Z,1.00
2022-08-03T14:52:00.343Z,1.00
2022-08-03T14:54:31.412Z,1.00
2022-08-03T14:57:04.526Z,1.00
2022-08-03T14:59:55.714Z,1.00
2022-08-03T15:02:25.422Z,1.00
2022-08-03T15:04:56.030Z,1.00
2022-08-03T15:07:26.220Z,1.00
2022-08-03T15:09:56.309Z,1.00
2022-08-03T15:12:29.243Z,1.00
2022-08-03T15:14:59.568Z,1.00
2022-08-03T15:17:29.823Z,1.00
2022-08-03T15:20:23.436Z,1.00
2022-08-03T15:22:53.234Z,1.00
2022-08-03T15:26:32.120Z,1.00
2022-08-03T15:28:16.286Z,1.00
2022-08-03T15:30:46.571Z,1.00
2022-08-03T15:33:16.751Z,1.00
2022-08-03T15:35:47.654Z,1.00
2022-08-03T15:38:18.396Z,1.00
2022-08-03T15:40:48.932Z,1.00
2022-08-03T15:43:21.695Z,1.00
2022-08-03T15:46:26.613Z,1.00
2022-08-03T15:48:42.943Z,1.00
2022-08-03T15:51:14.227Z,1.00
2022-08-03T15:53:44.612Z,1.00
2022-08-03T15:56:18.613Z,1.00
2022-08-03T15:59:09.775Z,1.00
2022-08-03T16:01:42.490Z,1.00
2022-08-03T16:04:12.755Z,1.00
2022-08-03T16:06:42.994Z,1.00
2022-08-03T16:09:23.937Z,1.00
2022-08-03T16:12:03.327Z,1.00
2022-08-03T16:14:45.618Z,1.00
2022-08-03T16:17:22.753Z,1.00
2022-08-03T16:19:54.824Z,1.00
2022-08-03T16:22:25.713Z,1.00
2022-08-03T16:24:58.076Z,1.00
2022-08-03T16:28:00.340Z,1.00
2022-08-03T16:30:22.324Z,1.00
2022-08-03T16:32:52.486Z,1.00
2022-08-03T16:35:24.381Z,1.00
2022-08-03T16:37:56.906Z,1.00
2022-08-03T16:40:28.232Z,1.00
2022-08-03T16:42:58.330Z,1.00
2022-08-03T16:45:31.392Z,1.00
2022-08-03T16:48:05.690Z,1.00
2022-08-03T16:50:37.871Z,1.00
2022-08-03T16:53:10.000Z,1.00
2022-08-03T16:55:53.267Z,1.00
2022-08-03T16:58:41.749Z,1.00
2022-08-03T17:01:24.307Z,1.00
2022-08-03T17:04:01.712Z,1.00
2022-08-03T17:06:35.001Z,1.00
2022-08-03T17:09:08.781Z,1.00
2022-08-03T17:11:46.870Z,1.00
2022-08-03T17:14:22.026Z,1.00
2022-08-03T17:17:01.463Z,1.00
2022-08-03T17:19:36.345Z,1.00
2022-08-03T17:22:15.960Z,1.00
2022-08-03T17:24:51.496Z,1.00
2022-08-03T17:28:51.103Z,1.00
2022-08-03T17:30:19.047Z,1.00
2022-08-03T17:32:57.876Z,1.00
2022-08-03T17:35:34.461Z,1.00
2022-08-03T17:38:11.892Z,1.00
2022-08-03T17:40:50.269Z,1.00
2022-08-03T17:44:13.845Z,1.00
2022-08-03T17:46:13.091Z,1.00
2022-08-03T17:48:45.780Z,1.00
2022-08-03T17:51:23.843Z,1.00
2022-08-03T17:54:20.431Z,1.00
2022-08-03T17:57:06.345Z,1.00
2022-08-03T18:00:01.846Z,1.00
2022-08-03T18:02:57.105Z,1.00
2022-08-03T18:06:10.343Z,1.00
2022-08-03T18:08:29.054Z,1.00
2022-08-03T18:11:03.430Z,1.00
2022-08-03T18:13:58.004Z,1.00
2022-08-03T18:16:37.669Z,1.00
2022-08-03T18:19:13.709Z,1.00
2022-08-03T18:22:03.016Z,1.00
2022-08-03T18:24:34.735Z,1.00
2022-08-03T18:27:11.007Z,1.00
2022-08-03T18:29:43.710Z,1.00
2022-08-03T18:32:21.933Z,1.00
2022-08-03T18:34:59.240Z,1.00
2022-08-03T18:37:51.888Z,1.00
2022-08-03T18:40:23.679Z,1.00
2022-08-03T18:42:58.542Z,1.00
2022-08-03T18:45:57.426Z,1.00
2022-08-03T18:48:38.466Z,1.00
2022-08-03T18:51:28.850Z,1.00
2022-08-03T18:54:55.666Z,1.00
2022-08-03T18:57:05.151Z,1.00
2022-08-03T18:59:51.713Z,1.00
2022-08-03T19:02:38.128Z,1.00
2022-08-03T19:05:11.762Z,1.00
2022-08-03T19:07:58.367Z,1.00
2022-08-03T19:10:36.911Z,1.00
2022-08-03T19:13:15.435Z,1.00
2022-08-03T19:15:51.750Z,1.00
2022-08-03T19:18:25.326Z,1.00
2022-08-03T19:20:56.244Z,1.00
2022-08-03T19:23:30.830Z,1.00
2022-08-03T19:26:07.382Z,1.00
2022-08-03T19:28:59.939Z,1.00
2022-08-03T19:31:35.044Z,1.00
2022-08-03T19:34:07.379Z,1.00
2022-08-03T19:36:40.449Z,1.00
2022-08-03T19:39:14.430Z,1.00
2022-08-03T19:41:54.223Z,1.00
2022-08-03T19:44:34.015Z,1.00
2022-08-03T19:47:16.850Z,1.00
2022-08-03T19:50:05.642Z,1.00
2022-08-03T19:52:43.914Z,1.00
2022-08-03T19:55:14.646Z,1.00
2022-08-03T19:57:50.807Z,1.00
2022-08-03T20:00:26.722Z,1.00
2022-08-03T20:03:01.145Z,1.00
2022-08-03T20:05:45.031Z,1.00
2022-08-03T20:08:27.445Z,1.00
2022-08-03T20:10:59.767Z,1.00
2022-08-03T20:13:39.126Z,1.00
2022-08-03T20:16:28.385Z,1.00
2022-08-03T20:19:04.948Z,1.00
2022-08-03T20:21:50.264Z,1.00
2022-08-03T20:24:29.569Z,1.00
2022-08-03T20:27:03.929Z,17.90
2022-08-03T20:30:06.429Z,61.20
2022-08-03T20:32:38.820Z,99.90
2022-08-03T20:35:09.985Z,99.90
2022-08-03T20:37:41.928Z,99.90
2022-08-03T20:40:13.838Z,99.90
2022-08-03T20:42:44.570Z,99.90
2022-08-03T20:45:59.367Z,99.90
2022-08-03T20:48:09.445Z,1.00
2022-08-03T20:50:40.742Z,1.00
2022-08-03T20:53:14.140Z,1.00
2022-08-03T20:56:03.271Z,1.00
2022-08-03T20:58:35.542Z,1.00
2022-08-03T21:01:09.129Z,1.00
2022-08-03T21:03:41.039Z,1.00
2022-08-03T21:06:27.408Z,1.00
2022-08-03T21:09:06.919Z,1.00
2022-08-03T21:11:42.932Z,24.40
2022-08-03T21:14:21.506Z,99.90
2022-08-03T21:16:55.275Z,99.90
2022-08-03T21:19:28.236Z,99.90
2022-08-03T21:22:00.671Z,99.90
2022-08-03T21:24:33.682Z,99.90
2022-08-03T21:27:04.703Z,99.90
2022-08-03T21:29:36.675Z,99.90
2022-08-03T21:32:32.536Z,99.90
2022-08-03T21:35:04.173Z,99.90
2022-08-03T21:37:34.400Z,99.90
2022-08-03T21:40:06.218Z,99.90
2022-08-03T21:42:36.985Z,99.90
2022-08-03T21:45:15.199Z,1.00
2022-08-03T21:47:51.458Z,1.00
2022-08-03T21:50:21.977Z,1.00
2022-08-03T21:52:54.272Z,1.00
2022-08-03T21:55:29.050Z,1.00
2022-08-03T21:58:07.690Z,25.00
2022-08-03T22:00:38.511Z,99.90
2022-08-03T22:03:17.248Z,1.00
2022-08-03T22:05:48.753Z,1.00
2022-08-03T22:08:19.175Z,16.40
2022-08-03T22:10:50.599Z,99.90
2022-08-03T22:13:44.221Z,1.00
2022-08-03T22:16:12.733Z,1.00
2022-08-03T22:18:48.395Z,1.00
2022-08-03T22:21:28.046Z,1.00
2022-08-03T22:24:10.106Z,1.00
2022-08-03T22:27:05.267Z,86.50
2022-08-03T22:29:39.550Z,1.00
2022-08-03T22:32:11.413Z,1.00
2022-08-03T22:34:49.308Z,99.90
2022-08-03T22:37:22.908Z,1.00
2022-08-03T22:39:54.018Z,75.60
2022-08-03T22:42:27.947Z,99.90
2022-08-03T22:44:58.834Z,1.00
2022-08-03T22:47:29.300Z,1.00
2022-08-03T22:50:32.783Z,1.00
2022-08-03T22:52:53.205Z,1.00
2022-08-03T22:55:25.992Z,1.00
2022-08-03T22:57:56.786Z,1.00
2022-08-03T23:00:28.351Z,1.00
2022-08-03T23:03:03.222Z,99.90
2022-08-03T23:06:00.280Z,99.90
2022-08-03T23:08:33.942Z,99.90
2022-08-03T23:11:08.828Z,1.00
2022-08-03T23:13:42.699Z,99.90
2022-08-03T23:16:13.472Z,1.00
2022-08-03T23:18:50.607Z,46.80
2022-08-03T23:22:00.639Z,99.90
2022-08-03T23:24:24.655Z,1.00
2022-08-03T23:27:01.203Z,99.90
2022-08-03T23:29:33.987Z,99.90
2022-08-03T23:32:05.711Z,99.90
2022-08-03T23:34:49.393Z,1.00
2022-08-03T23:37:23.422Z,39.10
2022-08-03T23:39:55.872Z,2.80
2022-08-03T23:42:27.147Z,1.00
2022-08-03T23:45:05.427Z,1.00
2022-08-03T23:47:46.725Z,1.00
2022-08-03T23:50:18.769Z,1.00
2022-08-03T23:53:05.738Z,1.00
2022-08-03T23:55:58.766Z,1.00
2022-08-03T23:58:55.930Z,99.90
